Time;durP1;ratioP1;P1;durP2;ratioP2;P2;SDS_P1;SDS_P2;PMS_P1;PMS_P2;Temp;Humidity;BMP_temperature;BMP_pressure;BME280_temperature;BME280_humidity;BME280_pressure;Samples;Min_cycle;Max_cycle;Signal;HPM_P1;HPM_P2
2021/05/04 00:01:08;;;;;;;0.30;0.30;;;12.50;99.90;;;;;;5035075;28;20237;-80
2021/05/04 00:03:37;;;;;;;0.30;0.30;;;12.40;99.90;;;;;;5035945;28;20279;-80
2021/05/04 00:06:03;;;;;;;0.22;0.22;;;12.20;99.90;;;;;;5036003;28;20168;-78
2021/05/04 00:08:29;;;;;;;0.40;0.40;;;12.00;99.90;;;;;;5054747;28;20160;-79
2021/05/04 00:10:54;;;;;;;1.10;1.00;;;11.90;99.90;;;;;;5053850;28;20207;-79
2021/05/04 00:13:21;;;;;;;8.48;0.47;;;11.70;99.90;;;;;;5018667;28;20316;-80
2021/05/04 00:15:47;;;;;;;0.40;0.40;;;11.60;99.90;;;;;;5036096;28;20631;-80
2021/05/04 00:18:12;;;;;;;16.15;1.08;;;11.50;99.90;;;;;;5036471;28;20156;-79
2021/05/04 00:20:38;;;;;;;0.63;0.63;;;11.40;99.90;;;;;;5017449;28;20208;-80
2021/05/04 00:23:03;;;;;;;0.52;0.52;;;11.30;99.90;;;;;;5035691;28;20218;-80
2021/05/04 00:25:29;;;;;;;4.95;0.80;;;11.20;99.90;;;;;;5017790;28;20502;-79
2021/05/04 00:27:55;;;;;;;0.30;0.30;;;11.20;99.90;;;;;;5037363;28;20203;-80
2021/05/04 00:30:20;;;;;;;0.28;0.28;;;11.20;99.90;;;;;;5035081;28;20754;-79
2021/05/04 00:32:46;;;;;;;0.30;0.30;;;11.00;99.90;;;;;;5035279;28;20168;-79
2021/05/04 00:35:12;;;;;;;0.43;0.43;;;10.90;99.90;;;;;;5017749;28;20524;-79
2021/05/04 00:37:37;;;;;;;3.08;1.05;;;10.90;99.90;;;;;;5035469;28;20239;-79
2021/05/04 00:40:04;;;;;;;0.38;0.38;;;10.80;99.90;;;;;;5034898;28;20234;-79
2021/05/04 00:42:30;;;;;;;0.65;0.65;;;10.70;99.90;;;;;;5034879;28;20668;-80
2021/05/04 00:44:55;;;;;;;0.43;0.43;;;10.60;99.90;;;;;;5035269;28;20191;-78
2021/05/04 00:47:21;;;;;;;0.52;0.52;;;10.50;99.90;;;;;;5016294;28;20171;-78
2021/05/04 00:49:47;;;;;;;0.30;0.30;;;10.40;99.90;;;;;;5034175;28;20168;-78
2021/05/04 00:52:13;;;;;;;0.57;0.57;;;10.40;99.90;;;;;;5033871;28;20203;-79
2021/05/04 00:54:40;;;;;;;0.50;0.47;;;10.30;99.90;;;;;;5034173;28;20153;-79
2021/05/04 00:57:08;;;;;;;0.30;0.30;;;10.30;99.90;;;;;;5016143;28;20164;-79
2021/05/04 00:59:36;;;;;;;0.20;0.20;;;10.30;99.90;;;;;;5016513;28;20233;-78
2021/05/04 01:02:02;;;;;;;0.45;0.45;;;10.20;99.90;;;;;;5033724;28;20194;-77
2021/05/04 01:04:28;;;;;;;0.20;0.20;;;10.20;99.90;;;;;;5033890;28;20654;-78
2021/05/04 01:06:53;;;;;;;20.27;0.75;;;10.10;99.90;;;;;;5033457;28;20187;-78
2021/05/04 01:09:19;;;;;;;0.55;0.55;;;10.00;99.90;;;;;;5033709;28;20171;-78
2021/05/04 01:11:46;;;;;;;0.28;0.28;;;10.10;99.90;;;;;;5033948;28;20725;-79
2021/05/04 01:14:13;;;;;;;0.32;0.32;;;10.10;99.90;;;;;;5033831;28;20148;-80
2021/05/04 01:16:43;;;;;;;0.38;0.38;;;10.10;99.90;;;;;;5034026;28;20214;-79
2021/05/04 01:19:10;;;;;;;0.40;0.40;;;10.10;99.90;;;;;;5033887;28;20167;-79
2021/05/04 01:21:35;;;;;;;0.38;0.38;;;10.10;99.90;;;;;;5034258;28;20650;-80
2021/05/04 01:24:01;;;;;;;0.20;0.20;;;10.20;99.90;;;;;;5032869;28;20210;-79
2021/05/04 01:26:27;;;;;;;0.85;0.85;;;10.10;99.90;;;;;;5033663;28;20171;-79
2021/05/04 01:28:52;;;;;;;0.32;0.32;;;10.10;99.90;;;;;;5033214;28;20269;-80
2021/05/04 01:31:18;;;;;;;0.43;0.43;;;10.10;99.90;;;;;;5033231;28;20298;-80
2021/05/04 01:33:44;;;;;;;0.50;0.50;;;10.00;99.90;;;;;;5015380;28;20638;-80
2021/05/04 01:36:09;;;;;;;0.60;0.60;;;10.00;99.90;;;;;;5033509;28;20175;-81
2021/05/04 01:38:35;;;;;;;0.47;0.47;;;10.00;99.90;;;;;;5033830;28;20205;-81
2021/05/04 01:41:00;;;;;;;0.28;0.28;;;10.20;99.90;;;;;;5034048;28;20199;-79
2021/05/04 01:43:26;;;;;;;7.32;1.88;;;10.20;99.90;;;;;;5033738;28;20182;-80
2021/05/04 01:45:51;;;;;;;1.65;0.73;;;10.00;99.90;;;;;;5033855;28;20160;-81
2021/05/04 01:48:17;;;;;;;0.25;0.25;;;10.10;99.90;;;;;;5033787;28;20662;-81
2021/05/04 01:50:43;;;;;;;9.38;1.73;;;10.10;99.90;;;;;;5033869;28;20218;-81
2021/05/04 01:53:08;;;;;;;0.22;0.22;;;10.10;99.90;;;;;;5038384;28;20672;-81
2021/05/04 01:55:34;;;;;;;0.65;0.55;;;10.00;99.90;;;;;;5034252;28;20167;-81
2021/05/04 01:57:59;;;;;;;0.22;0.22;;;10.10;99.90;;;;;;5055943;28;20148;-81
2021/05/04 02:00:25;;;;;;;0.95;0.93;;;10.20;99.90;;;;;;5055366;28;20183;-80
2021/05/04 02:02:51;;;;;;;1.00;0.52;;;10.20;99.90;;;;;;5058874;28;20151;-79
2021/05/04 02:05:16;;;;;;;0.30;0.30;;;10.20;99.90;;;;;;5051157;28;20167;-81
2021/05/04 02:07:42;;;;;;;0.43;0.43;;;10.20;99.90;;;;;;5015177;28;20504;-79
2021/05/04 02:10:10;;;;;;;0.55;0.55;;;10.10;99.90;;;;;;5032556;28;20168;-80
2021/05/04 02:12:36;;;;;;;0.30;0.30;;;10.20;99.90;;;;;;5032716;28;20191;-79
2021/05/04 02:15:02;;;;;;;0.35;0.35;;;10.20;99.90;;;;;;5032790;28;20644;-80
2021/05/04 02:17:28;;;;;;;0.28;0.28;;;10.10;99.90;;;;;;5014848;28;20554;-80
2021/05/04 02:19:53;;;;;;;0.68;0.68;;;10.20;99.90;;;;;;5032822;28;20156;-81
2021/05/04 02:22:19;;;;;;;0.40;0.40;;;10.20;99.90;;;;;;5032909;28;20179;-80
2021/05/04 02:24:45;;;;;;;0.40;0.40;;;10.20;99.90;;;;;;5033007;28;20152;-80
2021/05/04 02:27:11;;;;;;;0.70;0.70;;;10.20;99.90;;;;;;5032691;28;20504;-80
2021/05/04 02:29:36;;;;;;;0.70;0.70;;;10.20;99.90;;;;;;5032631;28;20258;-78
2021/05/04 02:32:02;;;;;;;1.42;0.50;;;10.20;99.90;;;;;;5014921;28;20265;-80
2021/05/04 02:34:28;;;;;;;0.40;0.40;;;10.30;99.90;;;;;;5032774;28;20163;-80
2021/05/04 02:36:53;;;;;;;0.68;0.68;;;10.40;99.90;;;;;;5035865;28;20749;-81
2021/05/04 02:39:19;;;;;;;0.30;0.30;;;10.40;99.90;;;;;;5036574;28;20168;-80
2021/05/04 02:41:44;;;;;;;0.50;0.50;;;10.40;99.90;;;;;;5037710;28;20249;-80
2021/05/04 02:44:10;;;;;;;2.97;0.50;;;10.30;99.90;;;;;;5048668;28;20172;-78
2021/05/04 02:46:35;;;;;;;0.45;0.45;;;10.40;99.90;;;;;;5053981;28;20168;-79
2021/05/04 02:49:01;;;;;;;0.30;0.30;;;10.30;99.90;;;;;;5054986;28;20180;-79
2021/05/04 02:51:27;;;;;;;0.20;0.20;;;10.40;99.90;;;;;;5022855;28;20206;-80
2021/05/04 02:53:53;;;;;;;0.30;0.30;;;10.30;99.90;;;;;;5018303;28;20618;-81
2021/05/04 02:56:18;;;;;;;0.63;0.63;;;10.30;99.90;;;;;;5018586;28;20179;-81
2021/05/04 02:58:44;;;;;;;0.20;0.20;;;10.40;99.90;;;;;;5036706;28;20179;-80
2021/05/04 03:01:10;;;;;;;0.57;0.57;;;10.30;99.90;;;;;;5036196;28;20190;-80
2021/05/04 03:03:35;;;;;;;0.30;0.30;;;10.40;99.90;;;;;;5035861;28;20160;-80
2021/05/04 03:06:04;;;;;;;0.55;0.40;;;10.50;99.90;;;;;;5036162;28;20172;-80
2021/05/04 03:08:31;;;;;;;0.20;0.20;;;10.40;99.90;;;;;;5035733;28;20167;-79
2021/05/04 03:10:57;;;;;;;1.98;1.58;;;10.50;99.90;;;;;;5035525;28;20257;-79
2021/05/04 03:13:28;;;;;;;0.20;0.20;;;10.50;99.90;;;;;;5035768;28;20160;-78
2021/05/04 03:15:54;;;;;;;0.32;0.32;;;10.60;99.90;;;;;;5036979;28;20520;-80
2021/05/04 03:18:20;;;;;;;4.90;0.60;;;10.60;99.90;;;;;;5036262;28;20168;-80
2021/05/04 03:20:48;;;;;;;0.30;0.30;;;10.60;99.90;;;;;;5036158;28;20195;-79
2021/05/04 03:23:14;;;;;;;0.32;0.32;;;10.60;99.90;;;;;;5037096;28;20186;-80
2021/05/04 03:25:41;;;;;;;0.80;0.50;;;10.60;99.90;;;;;;5035785;28;20187;-80
2021/05/04 03:28:08;;;;;;;0.20;0.20;;;10.60;99.90;;;;;;5038385;28;20639;-80
2021/05/04 03:30:34;;;;;;;0.40;0.40;;;10.60;99.90;;;;;;5018147;28;20207;-80
2021/05/04 03:33:06;;;;;;;0.20;0.20;;;10.60;99.90;;;;;;5036577;28;20172;-80
2021/05/04 03:35:32;;;;;;;0.20;0.20;;;10.60;99.90;;;;;;5036062;28;20615;-80
2021/05/04 03:37:58;;;;;;;0.43;0.43;;;10.60;99.90;;;;;;5018094;28;20172;-80
2021/05/04 03:40:24;;;;;;;0.55;0.55;;;10.70;99.90;;;;;;5035501;28;20385;-79
2021/05/04 03:42:49;;;;;;;0.20;0.20;;;10.60;99.90;;;;;;5015514;28;20639;-79
2021/05/04 03:45:15;;;;;;;0.20;0.20;;;10.60;99.90;;;;;;5035557;28;20171;-79
2021/05/04 03:47:42;;;;;;;0.63;0.63;;;10.70;99.90;;;;;;5034474;28;20167;-81
2021/05/04 03:50:12;;;;;;;0.40;0.40;;;10.70;99.90;;;;;;5036190;28;20164;-80
2021/05/04 03:52:38;;;;;;;0.20;0.20;;;10.80;99.90;;;;;;5036131;28;20171;-79
2021/05/04 03:55:04;;;;;;;0.43;0.43;;;10.70;99.90;;;;;;5035960;28;20222;-81
2021/05/04 03:57:30;;;;;;;0.30;0.30;;;10.70;99.90;;;;;;5017650;28;20208;-80
2021/05/04 04:02:30;;;;;;;0.30;0.30;;;10.60;99.90;;;;;;4981454;28;20209;-77
2021/05/04 04:04:55;;;;;;;0.20;0.20;;;10.60;99.90;;;;;;4975889;28;20520;-78
2021/05/04 04:07:21;;;;;;;0.50;0.50;;;10.70;99.90;;;;;;4958650;28;20261;-78
2021/05/04 04:09:46;;;;;;;0.30;0.30;;;10.70;99.90;;;;;;4982294;28;20178;-78
2021/05/04 04:12:12;;;;;;;0.20;0.20;;;10.70;99.90;;;;;;4995382;28;20244;-78
2021/05/04 04:14:37;;;;;;;0.20;0.20;;;10.70;99.90;;;;;;4996034;28;20172;-79
2021/05/04 04:17:03;;;;;;;0.20;0.20;;;10.70;99.90;;;;;;4995602;28;20208;-79
2021/05/04 04:19:28;;;;;;;2.10;0.88;;;10.70;99.90;;;;;;4995577;28;20169;-78
2021/05/04 04:21:54;;;;;;;1.00;0.40;;;10.80;99.90;;;;;;4977852;28;20277;-79
2021/05/04 04:24:19;;;;;;;0.38;0.38;;;10.80;99.90;;;;;;4995306;28;20165;-78
2021/05/04 04:26:45;;;;;;;0.20;0.20;;;10.80;99.90;;;;;;4995248;28;20228;-79
2021/05/04 04:29:11;;;;;;;0.30;0.30;;;10.90;99.90;;;;;;4995249;28;20252;-78
2021/05/04 04:31:36;;;;;;;0.75;0.75;;;10.80;99.90;;;;;;4977795;28;20213;-78
2021/05/04 04:34:03;;;;;;;0.30;0.30;;;10.80;99.90;;;;;;4995006;28;20207;-78
2021/05/04 04:36:28;;;;;;;0.20;0.20;;;10.80;99.90;;;;;;4995247;28;20169;-78
2021/05/04 04:38:54;;;;;;;0.30;0.30;;;10.90;99.90;;;;;;4995070;28;20231;-78
2021/05/04 04:41:19;;;;;;;0.22;0.22;;;11.00;99.90;;;;;;4977656;28;20197;-79
2021/05/04 04:43:45;;;;;;;0.30;0.30;;;11.10;99.90;;;;;;4994934;28;20301;-78
2021/05/04 04:46:11;;;;;;;0.40;0.40;;;11.00;99.90;;;;;;4994931;28;20185;-79
2021/05/04 04:48:36;;;;;;;0.57;0.57;;;11.00;99.90;;;;;;4994944;28;20158;-78
2021/05/04 04:51:02;;;;;;;0.13;0.13;;;11.00;99.90;;;;;;4995102;28;20232;-77
2021/05/04 04:53:28;;;;;;;0.47;0.47;;;11.00;99.90;;;;;;4994953;28;20264;-77
2021/05/04 04:55:53;;;;;;;4.70;0.57;;;11.10;99.90;;;;;;4994807;28;20197;-78
2021/05/04 04:58:19;;;;;;;0.30;0.30;;;11.10;99.90;;;;;;4994497;28;20172;-78
2021/05/04 05:00:45;;;;;;;0.35;0.35;;;11.20;99.90;;;;;;4976627;28;20307;-78
2021/05/04 05:03:10;;;;;;;0.28;0.28;;;11.30;99.90;;;;;;4994680;28;20188;-78
2021/05/04 05:05:36;;;;;;;1.00;1.00;;;11.30;99.90;;;;;;4994863;28;20241;-78
2021/05/04 05:08:01;;;;;;;0.45;0.45;;;11.30;99.90;;;;;;4994981;28;20625;-78
2021/05/04 05:10:27;;;;;;;0.28;0.28;;;11.30;99.90;;;;;;4976861;28;20208;-79
2021/05/04 05:12:53;;;;;;;0.20;0.20;;;11.20;99.90;;;;;;4994661;28;20161;-76
2021/05/04 05:15:19;;;;;;;0.38;0.38;;;11.20;99.90;;;;;;4994511;28;20241;-78
2021/05/04 05:17:44;;;;;;;0.20;0.20;;;11.00;99.90;;;;;;4994293;28;20183;-78
2021/05/04 05:20:11;;;;;;;0.20;0.20;;;10.90;99.90;;;;;;4976908;28;20613;-77
2021/05/04 05:22:36;;;;;;;0.20;0.20;;;11.00;99.90;;;;;;4994370;28;20251;-77
2021/05/04 05:25:03;;;;;;;0.32;0.32;;;10.80;99.90;;;;;;4994396;28;20665;-77
2021/05/04 05:27:33;;;;;;;0.20;0.20;;;10.80;99.90;;;;;;4994132;28;20252;-77
2021/05/04 05:29:59;;;;;;;0.55;0.55;;;10.70;99.90;;;;;;4976501;28;20311;-78
2021/05/04 05:32:25;;;;;;;0.47;0.47;;;10.60;99.90;;;;;;4993992;28;20208;-78
2021/05/04 05:34:51;;;;;;;0.20;0.20;;;10.70;99.90;;;;;;4993926;28;20163;-77
2021/05/04 05:37:16;;;;;;;0.40;0.40;;;10.80;99.90;;;;;;4993946;28;20629;-78
2021/05/04 05:39:42;;;;;;;0.20;0.20;;;11.00;99.90;;;;;;4993857;28;20173;-77
2021/05/04 05:42:13;;;;;;;0.20;0.20;;;11.10;99.90;;;;;;4994001;28;20186;-77
2021/05/04 05:44:39;;;;;;;5.00;0.68;;;11.20;99.90;;;;;;4994373;28;20227;-78
2021/05/04 05:47:05;;;;;;;0.45;0.40;;;11.20;99.90;;;;;;4993789;28;20561;-78
2021/05/04 05:49:31;;;;;;;0.63;0.63;;;11.30;99.90;;;;;;4994246;28;20169;-78
2021/05/04 05:51:56;;;;;;;0.73;0.73;;;11.30;99.90;;;;;;4993601;28;20213;-78
2021/05/04 05:54:22;;;;;;;0.57;0.40;;;11.30;99.90;;;;;;4993669;28;20200;-78
2021/05/04 05:56:48;;;;;;;0.70;0.70;;;11.30;99.90;;;;;;4993787;28;20173;-78
2021/05/04 05:59:14;;;;;;;0.52;0.52;;;11.30;99.90;;;;;;4994035;28;20158;-78
2021/05/04 06:01:40;;;;;;;0.28;0.28;;;11.50;99.90;;;;;;4993622;28;20221;-78
2021/05/04 06:04:06;;;;;;;0.30;0.30;;;11.60;99.90;;;;;;4993334;28;20197;-78
2021/05/04 06:06:31;;;;;;;0.22;0.22;;;11.60;99.90;;;;;;4993888;28;20177;-77
2021/05/04 06:08:57;;;;;;;2.47;0.60;;;11.60;99.90;;;;;;4993541;28;20173;-78
2021/05/04 06:11:23;;;;;;;0.20;0.20;;;11.50;99.90;;;;;;4996406;28;20209;-77
2021/05/04 06:13:48;;;;;;;0.52;0.50;;;11.50;99.90;;;;;;4997719;28;20172;-78
2021/05/04 06:16:14;;;;;;;0.75;0.30;;;11.50;99.90;;;;;;4998260;28;20246;-77
2021/05/04 06:18:39;;;;;;;0.20;0.20;;;11.50;99.90;;;;;;4980134;28;20219;-77
2021/05/04 06:21:05;;;;;;;0.50;0.50;;;11.60;99.90;;;;;;4997545;28;20193;-77
2021/05/04 06:23:31;;;;;;;0.55;0.40;;;11.60;99.90;;;;;;4997886;28;20158;-77
2021/05/04 06:25:56;;;;;;;0.52;0.52;;;11.60;99.90;;;;;;4997964;28;20165;-78
2021/05/04 06:28:22;;;;;;;0.60;0.60;;;11.60;99.90;;;;;;4997258;28;20515;-77
2021/05/04 06:30:47;;;;;;;15.75;1.15;;;11.60;99.90;;;;;;4996610;28;20200;-78
2021/05/04 06:33:14;;;;;;;2.47;1.38;;;11.60;99.90;;;;;;4996995;28;20180;-78
2021/05/04 06:35:43;;;;;;;1.00;0.65;;;11.60;99.90;;;;;;4979788;28;20161;-78
2021/05/04 06:38:12;;;;;;;1.05;1.05;;;11.60;99.90;;;;;;4997288;28;20173;-79
2021/05/04 06:40:38;;;;;;;0.70;0.70;;;11.50;99.90;;;;;;4978535;28;20204;-79
2021/05/04 06:43:04;;;;;;;0.30;0.30;;;11.50;99.90;;;;;;4979253;28;20518;-79
2021/05/04 06:45:30;;;;;;;0.20;0.20;;;11.40;99.90;;;;;;4979581;28;20180;-79
2021/05/04 06:47:56;;;;;;;1.02;1.02;;;11.50;99.90;;;;;;4996493;28;20522;-79
2021/05/04 06:50:22;;;;;;;0.75;0.75;;;11.50;99.90;;;;;;4996914;28;20197;-80
2021/05/04 06:52:47;;;;;;;0.28;0.28;;;11.50;99.90;;;;;;4996938;28;20497;-79
2021/05/04 06:55:13;;;;;;;0.75;0.70;;;11.50;99.90;;;;;;4979531;28;20549;-80
2021/05/04 06:57:39;;;;;;;10.15;1.05;;;11.40;99.90;;;;;;4979443;28;20176;-80
2021/05/04 07:00:06;;;;;;;4.05;0.68;;;11.30;99.90;;;;;;4979207;28;20185;-77
2021/05/04 07:02:32;;;;;;;0.20;0.20;;;11.20;99.90;;;;;;4997162;28;20192;-81
2021/05/04 07:04:57;;;;;;;0.10;0.10;;;11.10;99.90;;;;;;4979574;28;20256;-80
2021/05/04 07:07:23;;;;;;;0.30;0.30;;;11.10;99.90;;;;;;4997133;28;20197;-81
2021/05/04 07:09:49;;;;;;;0.50;0.50;;;11.20;99.90;;;;;;4997078;28;20180;-79
2021/05/04 07:12:14;;;;;;;0.20;0.20;;;11.30;99.90;;;;;;4996437;28;20213;-79
2021/05/04 07:14:40;;;;;;;0.20;0.20;;;11.50;99.90;;;;;;4996714;28;20154;-78
2021/05/04 07:17:06;;;;;;;0.63;0.40;;;11.40;99.90;;;;;;4996489;28;20637;-78
2021/05/04 07:19:32;;;;;;;2.35;0.85;;;11.40;99.90;;;;;;4996517;28;20183;-78
2021/05/04 07:21:59;;;;;;;1.25;1.20;;;11.50;99.90;;;;;;4996882;28;20675;-79
2021/05/04 07:24:24;;;;;;;0.82;0.82;;;11.70;99.90;;;;;;4996543;28;20300;-79
2021/05/04 07:26:50;;;;;;;0.30;0.30;;;12.00;99.90;;;;;;4997428;28;20256;-77
2021/05/04 07:29:16;;;;;;;1.13;0.65;;;12.10;99.90;;;;;;4996376;28;20161;-77
2021/05/04 07:31:43;;;;;;;0.73;0.73;;;12.20;99.90;;;;;;4996572;28;20244;-79
2021/05/04 07:34:09;;;;;;;0.20;0.20;;;12.40;99.90;;;;;;4996226;28;20625;-77
2021/05/04 07:36:35;;;;;;;1.27;0.70;;;12.50;99.90;;;;;;4978684;28;20173;-78
2021/05/04 07:39:01;;;;;;;0.68;0.55;;;12.50;99.90;;;;;;4996241;28;20169;-78
2021/05/04 07:41:27;;;;;;;2.25;0.73;;;12.50;99.90;;;;;;4996408;28;20271;-79
2021/05/04 07:43:53;;;;;;;12.93;2.75;;;12.50;99.90;;;;;;4978355;28;20633;-78
2021/05/04 07:46:19;;;;;;;0.25;0.25;;;12.30;99.90;;;;;;4978958;28;20173;-77
2021/05/04 07:48:44;;;;;;;0.40;0.40;;;12.20;99.90;;;;;;4996297;28;20181;-75
2021/05/04 07:51:10;;;;;;;0.52;0.52;;;12.00;99.90;;;;;;4995463;28;20197;-78
2021/05/04 07:53:36;;;;;;;6.63;1.30;;;12.00;99.90;;;;;;4996020;28;20196;-78
2021/05/04 07:56:02;;;;;;;0.40;0.40;;;12.00;99.90;;;;;;4996480;28;20209;-79
2021/05/04 07:58:27;;;;;;;8.20;1.33;;;12.10;99.90;;;;;;4996516;28;20216;-82
2021/05/04 08:00:54;;;;;;;0.65;0.65;;;12.20;99.90;;;;;;4980762;28;20220;-77
2021/05/04 08:03:20;;;;;;;1.27;1.10;;;12.20;99.90;;;;;;4998401;28;20223;-77
2021/05/04 08:05:45;;;;;;;6.63;1.55;;;12.20;99.90;;;;;;5000506;28;20157;-77
2021/05/04 08:08:12;;;;;;;6.65;1.00;;;12.30;99.90;;;;;;5013301;28;20168;-77
2021/05/04 08:10:38;;;;;;;2.63;0.95;;;12.30;99.90;;;;;;5016334;28;20208;-77
2021/05/04 08:13:04;;;;;;;1.15;1.05;;;12.30;99.90;;;;;;5014988;28;20169;-77
2021/05/04 08:15:31;;;;;;;5.28;1.38;;;12.30;99.90;;;;;;4995555;28;20168;-75
2021/05/04 08:18:00;;;;;;;2.17;1.27;;;12.40;99.90;;;;;;5014738;28;20160;-76
2021/05/04 08:20:31;;;;;;;0.20;0.20;;;12.40;99.90;;;;;;5014150;28;20193;-77
2021/05/04 08:22:57;;;;;;;24.73;1.50;;;12.40;99.90;;;;;;5007031;28;20251;-76
2021/05/04 08:25:23;;;;;;;5.68;1.23;;;12.50;99.90;;;;;;4994095;28;20189;-79
2021/05/04 08:27:49;;;;;;;10.73;1.27;;;12.40;99.90;;;;;;4996073;28;20680;-80
2021/05/04 08:30:15;;;;;;;4.43;1.65;;;12.50;99.90;;;;;;4995371;28;20208;-80
2021/05/04 08:32:41;;;;;;;2.05;1.42;;;12.20;99.90;;;;;;4996452;28;20169;-79
2021/05/04 08:35:07;;;;;;;9.60;2.70;;;12.20;99.90;;;;;;4997681;28;20251;-79
2021/05/04 08:37:32;;;;;;;36.90;1.08;;;12.10;99.90;;;;;;5000462;28;20183;-79
2021/05/04 08:39:58;;;;;;;0.30;0.30;;;12.00;99.90;;;;;;4978308;28;20177;-80
2021/05/04 08:42:24;;;;;;;0.32;0.32;;;12.00;99.90;;;;;;4995805;28;20169;-80
2021/05/04 08:44:52;;;;;;;16.45;1.77;;;11.90;99.90;;;;;;4995261;28;20540;-77
2021/05/04 08:47:22;;;;;;;2.45;1.38;;;11.90;99.90;;;;;;4995869;28;20231;-78
2021/05/04 08:49:49;;;;;;;1.33;0.95;;;11.80;99.90;;;;;;4995481;28;20193;-79
2021/05/04 08:52:16;;;;;;;0.52;0.35;;;12.10;99.90;;;;;;4996832;28;20287;-79
2021/05/04 08:54:43;;;;;;;2.95;1.45;;;12.20;99.90;;;;;;5000326;28;20204;-80
2021/05/04 08:57:08;;;;;;;0.60;0.60;;;12.30;99.90;;;;;;4978120;28;20173;-81
2021/05/04 08:59:34;;;;;;;0.80;0.80;;;12.50;99.90;;;;;;4978538;28;20169;-78
2021/05/04 09:02:00;;;;;;;0.32;0.32;;;12.50;99.90;;;;;;4977603;28;20323;-78
2021/05/04 09:04:38;;;;;;;0.20;0.20;;;12.50;99.90;;;;;;4997378;28;20165;-79
2021/05/04 09:07:25;;;;;;;11.40;1.55;;;12.40;99.90;;;;;;4995931;28;20224;-78
2021/05/04 09:10:21;;;;;;;0.50;0.50;;;12.40;99.90;;;;;;4996137;28;20169;-78
2021/05/04 09:15:35;;;;;;;0.30;0.30;;;12.20;99.90;;;;;;4996486;28;20602;-78
2021/05/04 09:18:07;;;;;;;0.20;0.20;;;12.20;99.90;;;;;;5000084;28;20196;-79
2021/05/04 09:20:50;;;;;;;0.75;0.75;;;12.10;99.90;;;;;;4995949;28;20565;-79
2021/05/04 09:23:15;;;;;;;2.22;1.00;;;12.30;99.90;;;;;;4979387;28;20204;-77
2021/05/04 09:25:41;;;;;;;0.40;0.40;;;12.40;99.90;;;;;;4995474;28;20188;-78
2021/05/04 09:28:10;;;;;;;1.35;1.15;;;12.50;99.90;;;;;;4994284;28;20235;-77
2021/05/04 09:30:36;;;;;;;0.30;0.30;;;12.60;99.90;;;;;;4994061;28;20212;-80
2021/05/04 09:33:06;;;;;;;0.20;0.20;;;12.60;99.90;;;;;;4994370;28;20170;-78
2021/05/04 09:35:32;;;;;;;0.40;0.40;;;12.50;99.90;;;;;;4994224;28;20169;-80
2021/05/04 09:38:09;;;;;;;0.40;0.40;;;12.60;99.90;;;;;;4993870;28;20157;-80
2021/05/04 09:40:41;;;;;;;0.20;0.20;;;12.50;99.90;;;;;;4995112;28;20649;-82
2021/05/04 09:43:11;;;;;;;3.50;0.63;;;12.50;99.90;;;;;;4976980;28;20312;-79
2021/05/04 09:45:43;;;;;;;5.82;2.25;;;12.60;99.90;;;;;;4992906;28;20568;-80
2021/05/04 09:48:44;;;;;;;0.80;0.32;;;12.80;99.90;;;;;;4993905;28;20161;-78
2021/05/04 09:51:17;;;;;;;0.30;0.30;;;12.90;99.90;;;;;;4988936;28;20236;-81
2021/05/04 09:56:18;;;;;;;0.20;0.20;;;12.80;99.90;;;;;;4993897;28;20714;-79
2021/05/04 09:58:46;;;;;;;1.08;0.95;;;12.80;99.90;;;;;;4993564;28;20609;-78
2021/05/04 10:01:20;;;;;;;0.30;0.30;;;12.70;99.90;;;;;;4993700;28;20228;-78
2021/05/04 10:03:47;;;;;;;0.20;0.20;;;12.80;99.90;;;;;;4976477;28;20197;-77
2021/05/04 10:06:15;;;;;;;0.20;0.20;;;12.90;99.90;;;;;;4994037;28;20204;-77
2021/05/04 10:08:42;;;;;;;1.10;1.10;;;12.90;99.90;;;;;;4993608;28;20196;-80
2021/05/04 10:11:19;;;;;;;0.20;0.20;;;12.90;99.90;;;;;;4993712;28;20274;-77
2021/05/04 10:13:47;;;;;;;0.50;0.50;;;12.90;99.90;;;;;;4993881;28;20235;-77
2021/05/04 10:16:13;;;;;;;0.30;0.30;;;13.00;99.90;;;;;;4993366;28;20165;-76
2021/05/04 10:18:39;;;;;;;6.93;1.75;;;13.00;99.90;;;;;;4993905;28;20162;-76
2021/05/04 10:21:08;;;;;;;0.73;0.73;;;13.10;99.90;;;;;;4993644;28;20193;-79
2021/05/04 10:23:36;;;;;;;0.20;0.20;;;13.30;99.90;;;;;;4976440;28;20181;-79
2021/05/04 10:26:04;;;;;;;0.28;0.28;;;13.40;99.90;;;;;;4994179;28;20498;-78
2021/05/04 10:28:35;;;;;;;9.85;1.38;;;13.40;99.90;;;;;;4975011;28;20164;-83
2021/05/04 10:31:06;;;;;;;0.52;0.52;;;13.30;99.90;;;;;;4993758;28;20213;-80
2021/05/04 10:33:34;;;;;;;0.20;0.20;;;13.30;99.90;;;;;;4993396;28;20161;-79
2021/05/04 10:36:02;;;;;;;0.65;0.63;;;13.20;99.90;;;;;;4993886;28;20165;-79
2021/05/04 10:38:54;;;;;;;0.43;0.43;;;13.40;99.90;;;;;;4993599;28;20188;-80
2021/05/04 10:41:22;;;;;;;0.20;0.20;;;13.40;99.90;;;;;;4994007;28;20205;-82
2021/05/04 10:44:03;;;;;;;0.57;0.57;;;13.40;99.90;;;;;;4993494;28;20248;-82
2021/05/04 10:46:37;;;;;;;0.50;0.50;;;13.20;99.90;;;;;;4994596;28;20259;-78
2021/05/04 10:49:03;;;;;;;3.08;1.30;;;13.00;99.90;;;;;;4993903;28;20175;-78
2021/05/04 10:52:01;;;;;;;5.07;1.05;;;12.90;99.90;;;;;;4975940;28;20271;-78
2021/05/04 10:54:27;;;;;;;0.73;0.73;;;13.00;99.90;;;;;;4955280;23;20316;-79
2021/05/04 10:56:55;;;;;;;0.20;0.20;;;13.10;99.90;;;;;;4977980;28;20197;-78
2021/05/04 10:59:24;;;;;;;0.43;0.43;;;13.00;99.90;;;;;;4998247;28;20170;-78
2021/05/04 11:02:15;;;;;;;0.40;0.40;;;12.90;99.90;;;;;;4985281;28;20633;-79
2021/05/04 11:04:51;;;;;;;0.45;0.45;;;13.20;99.90;;;;;;4999905;28;20169;-80
2021/05/04 11:07:53;;;;;;;0.20;0.20;;;13.30;99.90;;;;;;4997046;28;20169;-77
2021/05/04 11:10:19;;;;;;;0.20;0.20;;;13.50;99.90;;;;;;4996489;28;20707;-77
2021/05/04 11:12:45;;;;;;;1.48;0.40;;;13.70;99.90;;;;;;4996912;28;20169;-77
2021/05/04 11:15:32;;;;;;;14.73;0.98;;;13.80;99.90;;;;;;4996646;28;20176;-78
2021/05/04 11:17:57;;;;;;;0.80;0.63;;;13.90;99.90;;;;;;4995392;28;20380;-79
2021/05/04 11:20:37;;;;;;;0.68;0.68;;;13.90;99.90;;;;;;4995439;28;20188;-81
2021/05/04 11:23:05;;;;;;;0.20;0.20;;;13.70;99.90;;;;;;4996615;28;20959;-78
2021/05/04 11:25:36;;;;;;;0.50;0.50;;;14.00;99.90;;;;;;4996735;28;20200;-78
2021/05/04 11:28:02;;;;;;;1.08;0.50;;;14.40;99.90;;;;;;4996610;28;20162;-78
2021/05/04 11:30:39;;;;;;;0.55;0.52;;;14.40;99.90;;;;;;4996241;28;20542;-77
2021/05/04 11:33:25;;;;;;;1.20;0.73;;;14.40;99.90;;;;;;4987681;28;20615;-79
2021/05/04 11:35:51;;;;;;;0.40;0.40;;;14.40;99.90;;;;;;4993855;28;20188;-77
2021/05/04 11:38:21;;;;;;;0.30;0.30;;;14.40;99.90;;;;;;4995251;28;20613;-77
2021/05/04 11:40:48;;;;;;;0.52;0.52;;;14.20;99.90;;;;;;4976124;28;20196;-77
2021/05/04 11:43:20;;;;;;;4.97;1.13;;;14.50;99.90;;;;;;4994510;28;20305;-77
2021/05/04 11:45:47;;;;;;;0.50;0.50;;;14.40;99.90;;;;;;4993609;28;20264;-76
2021/05/04 11:48:12;;;;;;;0.80;0.80;;;14.30;99.90;;;;;;4995275;28;20154;-77
2021/05/04 11:50:40;;;;;;;1.48;1.05;;;14.20;99.90;;;;;;4994761;28;20207;-77
2021/05/04 11:53:15;;;;;;;9.07;1.95;;;14.00;99.90;;;;;;4994976;28;20188;-76
2021/05/04 11:55:50;;;;;;;2.00;1.48;;;14.10;99.90;;;;;;4990456;28;20287;-77
2021/05/04 11:58:17;;;;;;;0.45;0.45;;;14.10;99.90;;;;;;4975484;28;20168;-77
2021/05/04 12:00:44;;;;;;;0.50;0.50;;;14.10;99.90;;;;;;4975188;28;20280;-77
2021/05/04 12:03:14;;;;;;;0.30;0.30;;;14.10;99.90;;;;;;4964477;28;20700;-76
2021/05/04 12:05:42;;;;;;;0.32;0.32;;;14.20;99.90;;;;;;4955447;29;20167;-77
2021/05/04 12:08:10;;;;;;;0.43;0.43;;;14.30;99.90;;;;;;4954862;28;20505;-77
2021/05/04 12:10:49;;;;;;;0.30;0.30;;;14.40;99.90;;;;;;4955737;29;20194;-77
2021/05/04 12:13:20;;;;;;;0.20;0.20;;;14.30;99.90;;;;;;4955419;29;20679;-77
2021/05/04 12:15:47;;;;;;;5.15;1.75;;;14.30;99.90;;;;;;4955490;29;20568;-78
2021/05/04 12:18:18;;;;;;;2.75;0.47;;;14.40;99.90;;;;;;4938575;29;20178;-77
2021/05/04 12:20:46;;;;;;;1.75;0.82;;;14.40;99.90;;;;;;4954987;29;20195;-77
2021/05/04 12:23:23;;;;;;;0.30;0.30;;;14.50;99.90;;;;;;4955350;29;20170;-77
2021/05/04 12:26:00;;;;;;;3.35;0.40;;;14.60;99.90;;;;;;4938182;29;20599;-78
2021/05/04 12:28:31;;;;;;;0.20;0.20;;;14.70;99.90;;;;;;4956040;28;20261;-78
2021/05/04 12:31:12;;;;;;;0.30;0.30;;;14.60;99.90;;;;;;4958658;28;20210;-76
2021/05/04 12:33:39;;;;;;;0.68;0.68;;;14.50;99.90;;;;;;4955113;29;20257;-76
2021/05/04 12:36:16;;;;;;;0.75;0.60;;;14.40;99.90;;;;;;4970115;28;20284;-77
2021/05/04 12:38:49;;;;;;;33.97;2.95;;;14.50;99.90;;;;;;4973980;28;20219;-76
2021/05/04 12:41:16;;;;;;;2.28;0.73;;;14.60;99.90;;;;;;4974141;28;20248;-76
2021/05/04 12:44:09;;;;;;;0.30;0.30;;;14.60;99.90;;;;;;4974363;28;20170;-76
2021/05/04 12:46:40;;;;;;;0.20;0.20;;;14.80;99.90;;;;;;4965439;28;20633;-76
2021/05/04 12:49:05;;;;;;;0.47;0.47;;;15.20;99.90;;;;;;4974070;28;20170;-76
2021/05/04 12:51:32;;;;;;;0.10;0.10;;;15.60;99.90;;;;;;4974138;28;20217;-77
2021/05/04 12:54:15;;;;;;;0.20;0.20;;;15.30;99.90;;;;;;4974025;28;20637;-76
2021/05/04 12:56:40;;;;;;;0.32;0.32;;;14.90;99.90;;;;;;4973073;28;20672;-76